createdAt,value
2022-12-08T00:01:46.782Z,6.73
2022-12-08T00:04:26.239Z,6.93
2022-12-08T00:07:16.595Z,5.70
2022-12-08T00:09:54.106Z,5.13
2022-12-08T00:12:39.065Z,5.10
2022-12-08T00:15:08.991Z,4.77
2022-12-08T00:17:40.704Z,8.73
2022-12-08T00:20:14.059Z,5.73
2022-12-08T00:22:49.434Z,4.87
2022-12-08T00:25:20.108Z,10.23
2022-12-08T00:27:51.963Z,4.70
2022-12-08T00:30:22.917Z,5.20
2022-12-08T00:33:05.321Z,5.20
2022-12-08T00:35:35.638Z,3.93
2022-12-08T00:38:09.496Z,6.27
2022-12-08T00:40:38.342Z,4.87
2022-12-08T00:43:11.572Z,4.70
2022-12-08T00:45:42.545Z,6.60
2022-12-08T00:48:11.359Z,6.43
2022-12-08T00:50:42.267Z,9.80
2022-12-08T00:53:16.065Z,8.30
2022-12-08T00:55:46.697Z,9.37
2022-12-08T00:58:21.978Z,5.63
2022-12-08T01:00:51.756Z,7.33
2022-12-08T01:03:34.098Z,7.27
2022-12-08T01:06:15.755Z,5.57
2022-12-08T01:08:56.760Z,5.77
2022-12-08T01:11:25.903Z,6.23
2022-12-08T01:14:00.150Z,6.20
2022-12-08T01:16:38.640Z,7.93
2022-12-08T01:19:07.950Z,10.23
2022-12-08T01:21:39.009Z,6.83
2022-12-08T01:24:16.399Z,4.83
2022-12-08T01:26:47.208Z,7.90
2022-12-08T01:29:32.264Z,5.93
2022-12-08T01:32:09.259Z,5.50
2022-12-08T01:34:42.009Z,9.43
2022-12-08T01:37:16.480Z,6.00
2022-12-08T01:39:44.613Z,5.00
2022-12-08T01:42:25.113Z,7.70
2022-12-08T01:45:03.787Z,5.80
2022-12-08T01:47:49.458Z,6.17
2022-12-08T01:50:27.409Z,6.00
2022-12-08T01:53:01.179Z,5.73
2022-12-08T01:55:35.210Z,5.67
2022-12-08T01:58:16.763Z,5.63
2022-12-08T02:00:52.711Z,5.53
2022-12-08T02:03:31.439Z,6.70
2022-12-08T02:06:12.614Z,5.90
2022-12-08T02:08:47.825Z,6.90
2022-12-08T02:11:20.362Z,6.20
2022-12-08T02:13:51.426Z,5.23
2022-12-08T02:16:40.896Z,4.67
2022-12-08T02:19:31.654Z,5.40
2022-12-08T02:22:02.779Z,6.13
2022-12-08T02:24:41.370Z,4.70
2022-12-08T02:27:22.965Z,4.60
2022-12-08T02:30:16.636Z,6.80
2022-12-08T02:33:30.879Z,4.13
2022-12-08T02:36:13.375Z,4.20
2022-12-08T02:38:51.234Z,4.53
2022-12-08T02:41:28.951Z,5.70
2022-12-08T02:44:04.102Z,5.30
2022-12-08T02:46:45.237Z,5.93
2022-12-08T02:49:19.433Z,5.40
2022-12-08T02:51:50.026Z,5.00
2022-12-08T02:54:22.545Z,4.87
2022-12-08T02:57:11.951Z,4.23
2022-12-08T02:59:58.969Z,5.60
2022-12-08T03:02:45.724Z,4.60
2022-12-08T03:05:33.811Z,8.50
2022-12-08T03:08:08.065Z,7.40
2022-12-08T03:10:41.563Z,5.33
2022-12-08T03:13:16.855Z,4.33
2022-12-08T03:15:53.714Z,5.20
2022-12-08T03:18:36.772Z,5.97
2022-12-08T03:21:05.942Z,6.57
2022-12-08T03:23:41.205Z,5.70
2022-12-08T03:26:15.833Z,5.33
2022-12-08T03:28:53.017Z,5.37
2022-12-08T03:31:27.572Z,10.40
2022-12-08T03:33:58.111Z,6.07
2022-12-08T03:36:36.579Z,5.70
2022-12-08T03:39:12.589Z,5.90
2022-12-08T03:41:40.610Z,9.17
2022-12-08T03:44:08.837Z,9.60
2022-12-08T03:46:36.830Z,7.53
2022-12-08T03:49:05.025Z,6.20
2022-12-08T03:51:33.016Z,10.20
2022-12-08T03:54:01.067Z,7.57
2022-12-08T03:56:32.954Z,8.33
2022-12-08T03:59:01.101Z,7.90
2022-12-08T04:01:29.240Z,8.10
2022-12-08T04:03:57.337Z,5.83
2022-12-08T04:06:25.850Z,8.70
2022-12-08T04:08:53.954Z,8.43
2022-12-08T04:11:22.499Z,7.80
2022-12-08T04:13:51.917Z,7.93
2022-12-08T04:16:22.112Z,8.53
2022-12-08T04:18:50.299Z,8.00
2022-12-08T04:21:18.396Z,7.30
2022-12-08T04:23:47.128Z,7.17
2022-12-08T04:26:15.638Z,10.67
2022-12-08T04:28:43.686Z,5.70
2022-12-08T04:31:13.164Z,9.20
2022-12-08T04:33:41.339Z,7.40
2022-12-08T04:36:10.500Z,8.70
2022-12-08T04:38:38.490Z,5.50
2022-12-08T04:41:06.533Z,6.13
2022-12-08T04:43:34.545Z,8.37
2022-12-08T04:46:02.567Z,7.77
2022-12-08T04:48:31.978Z,7.53
2022-12-08T04:50:59.964Z,7.37
2022-12-08T04:53:27.947Z,7.67
2022-12-08T04:55:56.169Z,8.20
2022-12-08T04:58:24.138Z,7.93
2022-12-08T05:00:52.297Z,11.60
2022-12-08T05:03:26.720Z,9.20
2022-12-08T05:05:57.794Z,6.80
2022-12-08T05:08:27.242Z,8.30
2022-12-08T05:11:06.829Z,7.73
2022-12-08T05:13:36.005Z,7.57
2022-12-08T05:16:09.400Z,9.97
2022-12-08T05:18:46.734Z,11.00
2022-12-08T05:21:29.292Z,8.50
2022-12-08T05:24:03.899Z,9.03
2022-12-08T05:26:35.099Z,8.33
2022-12-08T05:29:06.437Z,8.27
2022-12-08T05:31:44.389Z,8.90
2022-12-08T05:34:15.304Z,10.80
2022-12-08T05:36:59.449Z,10.23
2022-12-08T05:39:27.774Z,8.40
2022-12-08T05:41:56.961Z,8.90
2022-12-08T05:44:28.219Z,6.87
2022-12-08T05:46:57.592Z,8.50
2022-12-08T05:49:26.261Z,9.23
2022-12-08T05:52:03.722Z,6.73
2022-12-08T05:54:47.782Z,8.93
2022-12-08T05:57:25.607Z,9.57
2022-12-08T06:00:02.296Z,8.70
2022-12-08T06:02:43.811Z,6.87
2022-12-08T06:05:12.677Z,9.63
2022-12-08T06:07:42.849Z,7.47
2022-12-08T06:10:15.100Z,7.27
2022-12-08T06:12:45.997Z,7.53
2022-12-08T06:15:21.887Z,9.90
2022-12-08T06:17:52.529Z,8.47
2022-12-08T06:20:23.365Z,8.60
2022-12-08T06:23:05.812Z,8.93
2022-12-08T06:25:37.724Z,10.30
2022-12-08T06:28:07.511Z,8.37
2022-12-08T06:30:39.044Z,9.13
2022-12-08T06:33:07.542Z,9.13
2022-12-08T06:35:36.556Z,10.23
2022-12-08T06:38:19.476Z,9.10
2022-12-08T06:40:57.944Z,11.90
2022-12-08T06:43:29.775Z,9.90
2022-12-08T06:46:11.257Z,8.80
2022-12-08T06:48:45.080Z,8.63
2022-12-08T06:51:15.941Z,9.90
2022-12-08T06:53:48.335Z,8.77
2022-12-08T06:56:28.569Z,12.13
2022-12-08T06:58:56.856Z,9.30
2022-12-08T07:01:39.524Z,11.50
2022-12-08T07:04:14.935Z,10.23
2022-12-08T07:06:52.633Z,11.43
2022-12-08T07:09:25.139Z,10.70
2022-12-08T07:11:54.088Z,13.20
2022-12-08T07:14:25.762Z,13.10
2022-12-08T07:16:56.533Z,20.53
2022-12-08T07:19:30.565Z,16.70
2022-12-08T07:21:59.000Z,17.70
2022-12-08T07:24:37.231Z,20.63
2022-12-08T07:27:19.443Z,19.10
2022-12-08T07:29:50.978Z,17.03
2022-12-08T07:32:27.661Z,21.67
2022-12-08T07:34:56.176Z,18.03
2022-12-08T07:37:27.081Z,16.73
2022-12-08T07:39:59.252Z,15.90
2022-12-08T07:42:35.673Z,12.23
2022-12-08T07:45:05.493Z,16.53
2022-12-08T07:47:42.493Z,13.97
2022-12-08T07:50:13.161Z,12.37
2022-12-08T07:52:45.025Z,13.17
2022-12-08T07:55:22.315Z,11.83
2022-12-08T07:58:12.109Z,11.73
2022-12-08T08:00:55.957Z,13.50
2022-12-08T08:03:24.870Z,13.50
2022-12-08T08:05:59.861Z,12.33
2022-12-08T08:08:33.468Z,10.50
2022-12-08T08:11:15.795Z,11.00
2022-12-08T08:13:50.949Z,13.63
2022-12-08T08:16:26.009Z,13.73
2022-12-08T08:19:03.215Z,11.30
2022-12-08T08:21:45.486Z,14.47
2022-12-08T08:24:17.474Z,13.93
2022-12-08T08:26:50.483Z,12.57
2022-12-08T08:29:19.073Z,15.77
2022-12-08T08:31:58.380Z,13.00
2022-12-08T08:34:28.692Z,11.77
2022-12-08T08:37:00.511Z,14.30
2022-12-08T08:39:31.953Z,11.60
2022-12-08T08:42:12.776Z,15.90
2022-12-08T08:44:44.925Z,17.50
2022-12-08T08:47:17.543Z,10.70
2022-12-08T08:49:48.914Z,13.63
2022-12-08T08:52:19.783Z,15.03
2022-12-08T08:54:51.639Z,13.03
2022-12-08T08:57:28.339Z,11.73
2022-12-08T09:00:04.146Z,15.60
2022-12-08T09:02:36.074Z,13.90
2022-12-08T09:05:04.885Z,9.53
2022-12-08T09:07:34.055Z,13.10
2022-12-08T09:10:04.203Z,12.63
2022-12-08T09:12:45.871Z,11.27
2022-12-08T09:15:16.389Z,10.47
2022-12-08T09:17:59.345Z,12.50
2022-12-08T09:20:31.148Z,11.30
2022-12-08T09:23:35.375Z,11.50
2022-12-08T09:26:13.939Z,11.30
2022-12-08T09:28:46.456Z,11.80
2022-12-08T09:31:25.966Z,13.60
2022-12-08T09:33:58.816Z,10.90
2022-12-08T09:36:34.122Z,10.83
2022-12-08T09:39:11.232Z,11.57
2022-12-08T09:41:53.096Z,10.77
2022-12-08T09:45:06.515Z,11.00
2022-12-08T09:48:08.929Z,12.80
2022-12-08T09:50:45.778Z,18.60
2022-12-08T09:53:22.718Z,16.60
2022-12-08T09:55:56.906Z,10.10
2022-12-08T09:58:35.782Z,8.30
2022-12-08T10:01:06.469Z,7.43
2022-12-08T10:03:43.688Z,9.70
2022-12-08T10:06:26.899Z,11.53
2022-12-08T10:09:12.331Z,10.13
2022-12-08T10:11:51.008Z,10.90
2022-12-08T10:14:28.051Z,8.03
2022-12-08T10:17:09.423Z,8.87
2022-12-08T10:19:39.741Z,9.17
2022-12-08T10:22:22.879Z,12.17
2022-12-08T10:25:00.353Z,9.37
2022-12-08T10:27:36.799Z,10.77
2022-12-08T10:30:20.004Z,11.60
2022-12-08T10:32:52.328Z,11.17
2022-12-08T10:35:28.526Z,14.53
2022-12-08T10:38:00.721Z,15.10
2022-12-08T10:40:36.878Z,14.20
2022-12-08T10:43:20.866Z,14.43
2022-12-08T10:45:54.786Z,12.33
2022-12-08T10:48:27.857Z,19.10
2022-12-08T10:50:58.028Z,13.80
2022-12-08T10:53:29.513Z,13.07
2022-12-08T10:56:08.543Z,12.87
2022-12-08T10:58:40.699Z,13.23
2022-12-08T11:01:13.450Z,13.37
2022-12-08T11:03:46.853Z,13.00
2022-12-08T11:06:17.707Z,13.83
2022-12-08T11:08:49.907Z,12.87
2022-12-08T11:11:18.359Z,12.27
2022-12-08T11:13:49.485Z,13.00
2022-12-08T11:16:18.575Z,13.40
2022-12-08T11:18:49.998Z,18.47
2022-12-08T11:21:20.204Z,17.97
2022-12-08T11:23:49.989Z,15.03
2022-12-08T11:26:22.386Z,15.10
2022-12-08T11:28:50.675Z,15.63
2022-12-08T11:31:29.067Z,15.50
2022-12-08T11:33:58.745Z,15.33
2022-12-08T11:36:28.481Z,14.17
2022-12-08T11:38:58.679Z,16.13
2022-12-08T11:41:28.827Z,17.13
2022-12-08T11:44:02.766Z,18.70
2022-12-08T11:46:34.493Z,16.43
2022-12-08T11:49:06.903Z,17.90
2022-12-08T11:51:38.025Z,15.03
2022-12-08T11:54:18.076Z,16.80
2022-12-08T11:56:48.389Z,19.87
2022-12-08T11:59:25.481Z,16.10
2022-12-08T12:01:53.754Z,16.23
2022-12-08T12:04:27.918Z,19.13
2022-12-08T12:07:14.354Z,16.00
2022-12-08T12:09:53.034Z,19.20
2022-12-08T12:12:36.407Z,22.80
2022-12-08T12:15:32.864Z,16.87
2022-12-08T12:18:03.156Z,16.60
2022-12-08T12:20:35.122Z,16.90
2022-12-08T12:23:06.517Z,16.07
2022-12-08T12:25:36.088Z,16.83
2022-12-08T12:28:14.208Z,19.40
2022-12-08T12:31:04.590Z,20.20
2022-12-08T12:33:35.970Z,19.47
2022-12-08T12:36:11.549Z,17.23
2022-12-08T12:39:09.970Z,18.13
2022-12-08T12:41:49.905Z,15.67
2022-12-08T12:44:44.686Z,15.90
2022-12-08T12:47:24.043Z,15.77
2022-12-08T12:50:12.805Z,19.00
2022-12-08T12:52:44.227Z,15.43
2022-12-08T12:55:55.839Z,17.23
2022-12-08T12:58:44.286Z,17.17
2022-12-08T13:01:55.751Z,16.00
2022-12-08T13:04:32.734Z,16.53
2022-12-08T13:07:15.317Z,21.27
2022-12-08T13:09:58.586Z,15.70
2022-12-08T13:12:28.286Z,21.17
2022-12-08T13:15:02.729Z,18.73
2022-12-08T13:17:41.823Z,18.23
2022-12-08T13:20:24.439Z,19.33
2022-12-08T13:23:30.113Z,18.77
2022-12-08T13:26:19.227Z,21.10
2022-12-08T13:29:19.910Z,18.77
2022-12-08T13:32:07.692Z,20.10
2022-12-08T13:34:50.042Z,19.07
2022-12-08T13:37:27.946Z,20.73
2022-12-08T13:40:10.069Z,21.73
2022-12-08T13:42:55.517Z,18.57
2022-12-08T13:46:04.365Z,20.33
2022-12-08T13:48:42.310Z,20.47
2022-12-08T13:57:12.225Z,18.57
2022-12-08T13:59:51.490Z,20.50
2022-12-08T14:02:34.761Z,21.40
2022-12-08T14:05:21.704Z,19.80
2022-12-08T14:07:57.286Z,20.20
2022-12-08T14:10:33.070Z,20.73
2022-12-08T14:13:08.902Z,21.30
2022-12-08T14:15:41.744Z,19.33
2022-12-08T14:18:36.210Z,19.67
2022-12-08T14:21:22.560Z,21.10
2022-12-08T14:23:59.207Z,21.30
2022-12-08T14:26:28.400Z,20.80
2022-12-08T14:29:00.192Z,20.33
2022-12-08T14:31:30.578Z,19.00
2022-12-08T14:34:00.500Z,22.30
2022-12-08T14:36:33.708Z,21.67
2022-12-08T14:39:08.057Z,22.50
2022-12-08T14:41:40.613Z,22.97
2022-12-08T14:44:25.556Z,24.13
2022-12-08T14:47:10.903Z,21.97
2022-12-08T14:49:41.925Z,21.70
2022-12-08T14:52:15.369Z,22.83
2022-12-08T14:54:56.142Z,19.87
2022-12-08T14:57:34.900Z,21.20
2022-12-08T15:00:18.405Z,21.90
2022-12-08T15:02:54.991Z,18.83
2022-12-08T15:05:31.303Z,23.73
2022-12-08T15:08:04.278Z,20.90
2022-12-08T15:10:41.649Z,23.23
2022-12-08T15:13:24.037Z,23.70
2022-12-08T15:15:55.849Z,22.97
2022-12-08T15:18:36.784Z,24.20
2022-12-08T15:21:11.115Z,23.03
2022-12-08T15:23:45.796Z,24.73
2022-12-08T15:26:23.120Z,21.07
2022-12-08T15:29:05.280Z,24.87
2022-12-08T15:31:44.151Z,21.90
2022-12-08T15:34:17.783Z,24.97
2022-12-08T15:36:52.195Z,22.60
2022-12-08T15:39:36.861Z,26.93
2022-12-08T15:42:10.298Z,22.63
2022-12-08T15:44:41.587Z,26.97
2022-12-08T15:47:17.870Z,23.00
2022-12-08T15:49:57.090Z,26.67
2022-12-08T15:52:35.929Z,21.70
2022-12-08T15:55:04.473Z,24.00
2022-12-08T15:58:30.762Z,29.33
2022-12-08T16:09:28.304Z,26.97
2022-12-08T16:12:15.297Z,25.27
2022-12-08T16:17:53.637Z,25.27
2022-12-08T16:20:32.749Z,26.00
2022-12-08T16:23:41.548Z,27.53
2022-12-08T16:26:35.526Z,26.57
2022-12-08T16:29:07.046Z,27.33
2022-12-08T16:31:38.064Z,26.63
2022-12-08T16:34:15.841Z,29.47
2022-12-08T16:36:47.877Z,24.37
2022-12-08T16:39:27.778Z,26.93
2022-12-08T16:42:14.662Z,27.50
2022-12-08T16:44:46.636Z,25.83
2022-12-08T16:47:28.861Z,29.07
2022-12-08T16:49:59.656Z,29.40
2022-12-08T16:52:44.420Z,25.70
2022-12-08T16:55:19.592Z,28.37
2022-12-08T16:57:50.754Z,24.17
2022-12-08T17:00:22.521Z,31.00
2022-12-08T17:02:52.268Z,25.13
2022-12-08T17:05:23.005Z,24.43
2022-12-08T17:08:02.796Z,26.20
2022-12-08T17:10:43.566Z,28.93
2022-12-08T17:13:29.435Z,27.53
2022-12-08T17:15:58.381Z,25.90
2022-12-08T17:18:27.805Z,29.20
2022-12-08T17:21:12.384Z,26.97
2022-12-08T17:23:51.298Z,32.10
2022-12-08T17:26:36.107Z,29.20
2022-12-08T17:29:16.888Z,32.97
2022-12-08T17:31:45.730Z,28.53
2022-12-08T17:34:18.226Z,33.77
2022-12-08T17:36:56.489Z,29.53
2022-12-08T17:39:28.848Z,29.90
2022-12-08T17:42:08.364Z,30.10
2022-12-08T17:44:58.301Z,37.27
2022-12-08T17:47:39.957Z,32.23
2022-12-08T17:50:27.988Z,33.97
2022-12-08T17:52:58.521Z,34.17
2022-12-08T17:55:33.161Z,31.97
2022-12-08T17:58:07.734Z,32.83
2022-12-08T18:00:36.847Z,29.80
2022-12-08T18:03:19.762Z,35.30
2022-12-08T18:06:05.573Z,31.43
2022-12-08T18:08:38.271Z,33.53
2022-12-08T18:11:12.632Z,32.73
2022-12-08T18:13:45.866Z,41.03
2022-12-08T18:16:27.747Z,39.83
2022-12-08T18:18:58.387Z,38.03
2022-12-08T18:21:28.716Z,39.80
2022-12-08T18:24:09.855Z,40.00
2022-12-08T18:26:44.964Z,37.13
2022-12-08T18:29:23.359Z,45.33
2022-12-08T18:32:03.791Z,43.17
2022-12-08T18:34:38.825Z,45.90
2022-12-08T18:37:14.042Z,39.17
2022-12-08T18:39:49.735Z,36.40
2022-12-08T18:42:40.704Z,37.83
2022-12-08T18:45:36.275Z,39.50
2022-12-08T18:48:20.840Z,40.07
2022-12-08T18:50:52.423Z,35.37
2022-12-08T18:53:31.208Z,36.50
2022-12-08T18:56:04.493Z,40.60
2022-12-08T18:58:41.763Z,40.37
2022-12-08T19:01:21.766Z,37.90
2022-12-08T19:04:19.993Z,44.40
2022-12-08T19:06:50.847Z,37.47
2022-12-08T19:09:30.557Z,40.10
2022-12-08T19:12:06.293Z,40.10
2022-12-08T19:14:45.872Z,39.90
2022-12-08T19:17:33.181Z,41.27
2022-12-08T19:20:11.980Z,39.50
2022-12-08T19:22:49.617Z,39.27
2022-12-08T19:25:25.967Z,36.57
2022-12-08T19:28:03.130Z,40.37
2022-12-08T19:30:39.686Z,38.00
2022-12-08T19:36:23.188Z,34.53
2022-12-08T19:39:21.209Z,37.83
2022-12-08T19:42:12.850Z,30.10
2022-12-08T19:45:00.849Z,32.33
2022-12-08T19:47:46.651Z,32.33
2022-12-08T19:50:40.813Z,33.80
2022-12-08T19:53:19.111Z,35.87
2022-12-08T19:55:58.808Z,31.17
2022-12-08T19:58:29.762Z,32.10
2022-12-08T20:01:05.538Z,32.37
2022-12-08T20:03:36.926Z,32.33
2022-12-08T20:06:20.802Z,32.97
2022-12-08T20:09:04.832Z,35.43
2022-12-08T20:11:54.633Z,33.00
2022-12-08T20:14:30.772Z,30.60
2022-12-08T20:17:04.210Z,34.53
2022-12-08T20:19:38.912Z,34.90
2022-12-08T20:22:30.158Z,30.60
2022-12-08T20:25:06.553Z,30.57
2022-12-08T20:27:51.117Z,35.00
2022-12-08T20:30:25.341Z,34.90
2022-12-08T20:33:08.578Z,30.40
2022-12-08T20:35:41.143Z,38.70
2022-12-08T20:38:21.593Z,31.50
2022-12-08T20:40:51.155Z,36.90
2022-12-08T20:43:20.836Z,30.67
2022-12-08T20:45:50.319Z,34.30
2022-12-08T20:48:19.686Z,31.17
2022-12-08T20:50:52.322Z,33.33
2022-12-08T20:53:23.118Z,33.90
2022-12-08T20:55:55.874Z,29.77
2022-12-08T20:58:25.065Z,32.70
2022-12-08T21:00:54.126Z,28.63
2022-12-08T21:03:23.620Z,28.23
2022-12-08T21:05:53.556Z,26.23
2022-12-08T21:08:26.432Z,29.33
2022-12-08T21:10:57.953Z,29.33
2022-12-08T21:13:26.218Z,29.50
2022-12-08T21:15:54.957Z,33.47
2022-12-08T21:18:24.431Z,30.60
2022-12-08T21:20:54.095Z,29.87
2022-12-08T21:23:23.577Z,30.67
2022-12-08T21:25:52.048Z,32.77
2022-12-08T21:28:20.309Z,26.30
2022-12-08T21:30:48.429Z,26.97
2022-12-08T21:33:17.857Z,28.53
2022-12-08T21:35:46.305Z,29.33
2022-12-08T21:38:14.622Z,31.07
2022-12-08T21:40:44.249Z,32.03
2022-12-08T21:43:13.707Z,24.50
2022-12-08T21:45:42.044Z,27.13
2022-12-08T21:48:11.881Z,26.23
2022-12-08T21:50:40.431Z,25.27
2022-12-08T21:53:08.754Z,30.50
2022-12-08T21:55:37.238Z,32.60
2022-12-08T21:58:07.247Z,27.30
2022-12-08T22:00:35.620Z,26.80
2022-12-08T22:03:04.168Z,24.23
2022-12-08T22:05:32.543Z,23.23
2022-12-08T22:08:00.792Z,28.17
2022-12-08T22:10:29.270Z,25.43
2022-12-08T22:12:57.523Z,26.47
2022-12-08T22:15:29.808Z,23.20
2022-12-08T22:17:58.147Z,27.60
2022-12-08T22:20:26.419Z,25.60
2022-12-08T22:22:54.677Z,30.17
2022-12-08T22:25:23.018Z,26.30
2022-12-08T22:27:51.285Z,26.57
2022-12-08T22:30:19.583Z,29.17
2022-12-08T22:32:49.196Z,30.53
2022-12-08T22:35:17.561Z,26.93
2022-12-08T22:37:49.221Z,31.93
2022-12-08T22:40:17.759Z,28.73
2022-12-08T22:42:46.211Z,31.10
2022-12-08T22:45:14.683Z,26.30
2022-12-08T22:47:42.971Z,29.67
2022-12-08T22:50:13.100Z,29.77
2022-12-08T22:52:41.476Z,31.03
2022-12-08T22:55:10.228Z,29.33
2022-12-08T22:57:38.768Z,26.70
2022-12-08T23:00:11.938Z,31.93
2022-12-08T23:02:40.447Z,33.77
2022-12-08T23:05:09.468Z,35.77
2022-12-08T23:07:40.296Z,30.33
2022-12-08T23:10:10.764Z,30.90
2022-12-08T23:12:39.265Z,28.90
2022-12-08T23:15:08.755Z,31.70
2022-12-08T23:17:37.172Z,33.70
2022-12-08T23:20:06.966Z,38.80
2022-12-08T23:22:35.280Z,28.27
2022-12-08T23:25:07.757Z,31.83
2022-12-08T23:27:39.608Z,29.67
2022-12-08T23:30:10.227Z,34.27
2022-12-08T23:32:42.281Z,34.27
2022-12-08T23:35:12.840Z,36.40
2022-12-08T23:37:42.412Z,33.20
2022-12-08T23:40:16.318Z,29.67
2022-12-08T23:42:47.474Z,28.87
2022-12-08T23:45:19.998Z,29.60
2022-12-08T23:47:48.502Z,33.13
2022-12-08T23:50:28.550Z,32.77
2022-12-08T23:53:01.161Z,33.43
2022-12-08T23:55:36.340Z,31.33
2022-12-08T23:58:07.480Z,33.70
